sensor_id;sensor_type;location;lat;lon;timestamp;pressure;altitude;pressure_sealevel;temperature;humidity
5595;BME280;1003;48.002;7.788;2023-04-23T00:01:26;98409.03;;;12.90;100.00
5595;BME280;1003;48.002;7.788;2023-04-23T00:03:56;98417.41;;;12.91;100.00
5595;BME280;1003;48.002;7.788;2023-04-23T00:06:26;98430.03;;;12.91;100.00
5595;BME280;1003;48.002;7.788;2023-04-23T00:08:59;98454.53;;;12.87;100.00
5595;BME280;1003;48.002;7.788;2023-04-23T00:11:27;98474.84;;;12.82;100.00
5595;BME280;1003;48.002;7.788;2023-04-23T00:13:54;98506.81;;;12.82;100.00
5595;BME280;1003;48.002;7.788;2023-04-23T00:16:22;98589.31;;;12.77;100.00
5595;BME280;1003;48.002;7.788;2023-04-23T00:18:50;98707.19;;;12.70;100.00
5595;BME280;1003;48.002;7.788;2023-04-23T00:21:17;98765.75;;;12.80;100.00
5595;BME280;1003;48.002;7.788;2023-04-23T00:23:45;98784.28;;;12.79;100.00
5595;BME280;1003;48.002;7.788;2023-04-23T00:26:12;98810.47;;;12.73;100.00
5595;BME280;1003;48.002;7.788;2023-04-23T00:28:39;98803.00;;;12.70;100.00
5595;BME280;1003;48.002;7.788;2023-04-23T00:31:06;98829.72;;;12.77;100.00
5595;BME280;1003;48.002;7.788;2023-04-23T00:33:33;98858.28;;;12.78;100.00
5595;BME280;1003;48.002;7.788;2023-04-23T00:36:02;98886.22;;;12.70;100.00
5595;BME280;1003;48.002;7.788;2023-04-23T00:38:29;98918.22;;;12.67;100.00
5595;BME280;1003;48.002;7.788;2023-04-23T00:40:57;98952.69;;;12.66;100.00
5595;BME280;1003;48.002;7.788;2023-04-23T00:43:25;98990.88;;;12.49;100.00
5595;BME280;1003;48.002;7.788;2023-04-23T00:45:52;99022.19;;;12.39;100.00
5595;BME280;1003;48.002;7.788;2023-04-23T00:48:20;99070.97;;;12.35;100.00
5595;BME280;1003;48.002;7.788;2023-04-23T00:50:47;99098.75;;;12.32;100.00
5595;BME280;1003;48.002;7.788;2023-04-23T00:53:14;99107.31;;;12.23;100.00
5595;BME280;1003;48.002;7.788;2023-04-23T00:55:41;99127.56;;;12.19;100.00
5595;BME280;1003;48.002;7.788;2023-04-23T00:58:10;99122.59;;;12.14;100.00
5595;BME280;1003;48.002;7.788;2023-04-23T01:00:45;99134.41;;;12.12;100.00
5595;BME280;1003;48.002;7.788;2023-04-23T01:03:14;99125.94;;;12.16;100.00
5595;BME280;1003;48.002;7.788;2023-04-23T01:05:43;99123.50;;;12.12;100.00
5595;BME280;1003;48.002;7.788;2023-04-23T01:08:15;99133.56;;;12.12;100.00
5595;BME280;1003;48.002;7.788;2023-04-23T01:10:43;99135.28;;;12.08;100.00
5595;BME280;1003;48.002;7.788;2023-04-23T01:13:13;99138.69;;;12.07;100.00
5595;BME280;1003;48.002;7.788;2023-04-23T01:15:41;99155.56;;;12.02;100.00
5595;BME280;1003;48.002;7.788;2023-04-23T01:18:08;99165.72;;;11.96;100.00
5595;BME280;1003;48.002;7.788;2023-04-23T01:20:36;99175.13;;;11.86;100.00
5595;BME280;1003;48.002;7.788;2023-04-23T01:23:05;99188.59;;;11.80;100.00
5595;BME280;1003;48.002;7.788;2023-04-23T01:25:33;99212.09;;;11.82;100.00
5595;BME280;1003;48.002;7.788;2023-04-23T01:28:00;99227.22;;;11.78;100.00
5595;BME280;1003;48.002;7.788;2023-04-23T01:30:28;99225.59;;;11.75;100.00
5595;BME280;1003;48.002;7.788;2023-04-23T01:32:56;99234.00;;;11.73;100.00
5595;BME280;1003;48.002;7.788;2023-04-23T01:35:24;99239.06;;;11.74;100.00
5595;BME280;1003;48.002;7.788;2023-04-23T01:37:53;99249.16;;;11.71;100.00
5595;BME280;1003;48.002;7.788;2023-04-23T01:40:23;99254.09;;;11.77;100.00
5595;BME280;1003;48.002;7.788;2023-04-23T01:42:50;99241.72;;;11.62;100.00
5595;BME280;1003;48.002;7.788;2023-04-23T01:45:17;99256.03;;;11.60;100.00
5595;BME280;1003;48.002;7.788;2023-04-23T01:47:45;99243.47;;;11.59;100.00
5595;BME280;1003;48.002;7.788;2023-04-23T01:50:13;99258.72;;;11.46;100.00
5595;BME280;1003;48.002;7.788;2023-04-23T01:52:40;99268.88;;;11.39;100.00
5595;BME280;1003;48.002;7.788;2023-04-23T01:55:09;99268.88;;;11.39;100.00
5595;BME280;1003;48.002;7.788;2023-04-23T01:57:38;99269.66;;;11.44;100.00
5595;BME280;1003;48.002;7.788;2023-04-23T02:00:11;99256.22;;;11.45;100.00
5595;BME280;1003;48.002;7.788;2023-04-23T02:02:41;99266.41;;;11.36;100.00
5595;BME280;1003;48.002;7.788;2023-04-23T02:05:11;99263.09;;;11.30;100.00
5595;BME280;1003;48.002;7.788;2023-04-23T02:07:39;99266.44;;;11.33;100.00
5595;BME280;1003;48.002;7.788;2023-04-23T02:10:08;99275.59;;;11.38;100.00
5595;BME280;1003;48.002;7.788;2023-04-23T02:12:36;99268.16;;;11.30;100.00
5595;BME280;1003;48.002;7.788;2023-04-23T02:15:06;99277.28;;;11.38;100.00
5595;BME280;1003;48.002;7.788;2023-04-23T02:17:34;99275.63;;;11.35;100.00
5595;BME280;1003;48.002;7.788;2023-04-23T02:20:02;99276.53;;;11.28;100.00
5595;BME280;1003;48.002;7.788;2023-04-23T02:22:29;99279.91;;;11.30;100.00
5595;BME280;1003;48.002;7.788;2023-04-23T02:24:56;99269.81;;;11.28;100.00
5595;BME280;1003;48.002;7.788;2023-04-23T02:27:24;99263.09;;;11.29;100.00
5595;BME280;1003;48.002;7.788;2023-04-23T02:29:53;99259.75;;;11.28;100.00
5595;BME280;1003;48.002;7.788;2023-04-23T02:32:20;99255.59;;;11.27;100.00
5595;BME280;1003;48.002;7.788;2023-04-23T02:34:47;99244.75;;;11.22;100.00
5595;BME280;1003;48.002;7.788;2023-04-23T02:37:14;99235.50;;;11.26;100.00
5595;BME280;1003;48.002;7.788;2023-04-23T02:39:41;99232.91;;;11.29;100.00
5595;BME280;1003;48.002;7.788;2023-04-23T02:42:08;99223.75;;;11.25;100.00
5595;BME280;1003;48.002;7.788;2023-04-23T02:44:35;99230.44;;;11.26;100.00
5595;BME280;1003;48.002;7.788;2023-04-23T02:47:04;99238.09;;;11.17;100.00
5595;BME280;1003;48.002;7.788;2023-04-23T02:49:31;99237.28;;;11.13;100.00
5595;BME280;1003;48.002;7.788;2023-04-23T02:51:58;99240.63;;;11.14;100.00
5595;BME280;1003;48.002;7.788;2023-04-23T02:54:25;99238.19;;;11.11;100.00
5595;BME280;1003;48.002;7.788;2023-04-23T02:56:52;99231.47;;;11.08;100.00
5595;BME280;1003;48.002;7.788;2023-04-23T02:59:22;99239.88;;;11.07;100.00
5595;BME280;1003;48.002;7.788;2023-04-23T03:01:49;99233.19;;;11.06;100.00
5595;BME280;1003;48.002;7.788;2023-04-23T03:04:18;99227.31;;;11.07;100.00
5595;BME280;1003;48.002;7.788;2023-04-23T03:06:45;99224.72;;;11.13;100.00
5595;BME280;1003;48.002;7.788;2023-04-23T03:09:12;99216.38;;;11.08;100.00
5595;BME280;1003;48.002;7.788;2023-04-23T03:11:40;99210.56;;;11.06;100.00
5595;BME280;1003;48.002;7.788;2023-04-23T03:14:07;99213.94;;;11.05;100.00
5595;BME280;1003;48.002;7.788;2023-04-23T03:16:34;99213.00;;;11.12;100.00
5595;BME280;1003;48.002;7.788;2023-04-23T03:19:01;99212.22;;;11.09;100.00
5595;BME280;1003;48.002;7.788;2023-04-23T03:21:29;99206.19;;;11.20;100.00
5595;BME280;1003;48.002;7.788;2023-04-23T03:23:56;99196.09;;;11.22;100.00
5595;BME280;1003;48.002;7.788;2023-04-23T03:26:23;99188.59;;;11.20;100.00
5595;BME280;1003;48.002;7.788;2023-04-23T03:28:50;99186.81;;;11.27;100.00
5595;BME280;1003;48.002;7.788;2023-04-23T03:31:17;99173.97;;;11.45;100.00
5595;BME280;1003;48.002;7.788;2023-04-23T03:33:44;99150.50;;;11.45;100.00
5595;BME280;1003;48.002;7.788;2023-04-23T03:36:11;99113.50;;;11.53;100.00
5595;BME280;1003;48.002;7.788;2023-04-23T03:38:41;99091.59;;;11.58;100.00
5595;BME280;1003;48.002;7.788;2023-04-23T03:41:08;99064.69;;;11.60;100.00
5595;BME280;1003;48.002;7.788;2023-04-23T03:43:35;99031.13;;;11.61;100.00
5595;BME280;1003;48.002;7.788;2023-04-23T03:46:02;99000.97;;;11.58;100.00
5595;BME280;1003;48.002;7.788;2023-04-23T03:48:29;98993.50;;;11.53;100.00
5595;BME280;1003;48.002;7.788;2023-04-23T03:50:57;98985.34;;;11.39;100.00
5595;BME280;1003;48.002;7.788;2023-04-23T03:53:24;98983.88;;;11.27;100.00
5595;BME280;1003;48.002;7.788;2023-04-23T03:55:53;98983.91;;;11.24;100.00
5595;BME280;1003;48.002;7.788;2023-04-23T03:58:20;98982.31;;;11.20;100.00
5595;BME280;1003;48.002;7.788;2023-04-23T04:00:47;98991.63;;;11.15;100.00
5595;BME280;1003;48.002;7.788;2023-04-23T04:03:14;98993.38;;;11.10;100.00
5595;BME280;1003;48.002;7.788;2023-04-23T04:05:41;98997.59;;;11.07;100.00
5595;BME280;1003;48.002;7.788;2023-04-23T04:08:09;99005.19;;;11.05;100.00
5595;BME280;1003;48.002;7.788;2023-04-23T04:10:36;99006.91;;;11.01;100.00
5595;BME280;1003;48.002;7.788;2023-04-23T04:13:04;99001.88;;;11.01;100.00
5595;BME280;1003;48.002;7.788;2023-04-23T04:15:31;99011.06;;;11.02;100.00
5595;BME280;1003;48.002;7.788;2023-04-23T04:17:58;99002.66;;;11.05;100.00
5595;BME280;1003;48.002;7.788;2023-04-23T04:20:26;99014.41;;;11.03;100.00
5595;BME280;1003;48.002;7.788;2023-04-23T04:22:54;99016.16;;;10.99;100.00
5595;BME280;1003;48.002;7.788;2023-04-23T04:25:21;99017.81;;;11.00;100.00
5595;BME280;1003;48.002;7.788;2023-04-23T04:27:49;99010.34;;;10.96;100.00
5595;BME280;1003;48.002;7.788;2023-04-23T04:30:17;99015.34;;;10.99;100.00
5595;BME280;1003;48.002;7.788;2023-04-23T04:32:44;99017.03;;;10.97;100.00
5595;BME280;1003;48.002;7.788;2023-04-23T04:35:12;99022.91;;;10.96;100.00
5595;BME280;1003;48.002;7.788;2023-04-23T04:37:39;99027.91;;;10.97;100.00
5595;BME280;1003;48.002;7.788;2023-04-23T04:40:07;99021.28;;;10.93;100.00
5595;BME280;1003;48.002;7.788;2023-04-23T04:42:36;99021.38;;;10.87;100.00
5595;BME280;1003;48.002;7.788;2023-04-23T04:45:05;99017.25;;;10.82;100.00
5595;BME280;1003;48.002;7.788;2023-04-23T04:47:34;99032.31;;;10.83;100.00
5595;BME280;1003;48.002;7.788;2023-04-23T04:50:02;99020.56;;;10.84;100.00
5595;BME280;1003;48.002;7.788;2023-04-23T04:52:29;99018.84;;;10.87;100.00
5595;BME280;1003;48.002;7.788;2023-04-23T04:54:56;99014.59;;;10.91;100.00
5595;BME280;1003;48.002;7.788;2023-04-23T04:57:23;99010.38;;;10.94;100.00
5595;BME280;1003;48.002;7.788;2023-04-23T04:59:50;99018.63;;;11.04;100.00
5595;BME280;1003;48.002;7.788;2023-04-23T05:02:18;99029.31;;;11.17;100.00
5595;BME280;1003;48.002;7.788;2023-04-23T05:04:49;99015.72;;;11.30;100.00
5595;BME280;1003;48.002;7.788;2023-04-23T05:07:17;99022.19;;;11.43;100.00
5595;BME280;1003;48.002;7.788;2023-04-23T05:09:44;99020.19;;;11.62;100.00
5595;BME280;1003;48.002;7.788;2023-04-23T05:12:11;99027.31;;;11.88;100.00
5595;BME280;1003;48.002;7.788;2023-04-23T05:14:38;99015.28;;;12.05;100.00
5595;BME280;1003;48.002;7.788;2023-04-23T05:17:05;99006.66;;;12.17;100.00
5595;BME280;1003;48.002;7.788;2023-04-23T05:19:32;98996.56;;;12.17;100.00
5595;BME280;1003;48.002;7.788;2023-04-23T05:22:00;98989.03;;;12.16;100.00
5595;BME280;1003;48.002;7.788;2023-04-23T05:24:28;98978.25;;;12.09;100.00
5595;BME280;1003;48.002;7.788;2023-04-23T05:26:55;98981.66;;;12.05;100.00
5595;BME280;1003;48.002;7.788;2023-04-23T05:29:22;98979.72;;;12.19;100.00
5595;BME280;1003;48.002;7.788;2023-04-23T05:31:49;98974.38;;;12.34;100.00
5595;BME280;1003;48.002;7.788;2023-04-23T05:34:16;98979.03;;;12.53;100.00
5595;BME280;1003;48.002;7.788;2023-04-23T05:36:43;98970.31;;;12.68;100.00
5595;BME280;1003;48.002;7.788;2023-04-23T05:39:12;98964.28;;;12.73;100.00
5595;BME280;1003;48.002;7.788;2023-04-23T05:41:40;98959.97;;;12.78;100.00
5595;BME280;1003;48.002;7.788;2023-04-23T05:44:07;98945.06;;;13.05;100.00
5595;BME280;1003;48.002;7.788;2023-04-23T05:46:34;98930.38;;;13.22;100.00
5595;BME280;1003;48.002;7.788;2023-04-23T05:49:01;98922.16;;;13.48;100.00
5595;BME280;1003;48.002;7.788;2023-04-23T05:51:30;98918.94;;;13.74;100.00
5595;BME280;1003;48.002;7.788;2023-04-23T05:53:57;98894.44;;;13.76;100.00
5595;BME280;1003;48.002;7.788;2023-04-23T05:56:25;98887.72;;;14.06;100.00
5595;BME280;1003;48.002;7.788;2023-04-23T05:58:53;98855.88;;;14.29;100.00
5595;BME280;1003;48.002;7.788;2023-04-23T06:01:20;98851.94;;;14.48;100.00
5595;BME280;1003;48.002;7.788;2023-04-23T06:03:47;98848.03;;;14.91;100.00
5595;BME280;1003;48.002;7.788;2023-04-23T06:06:14;98829.84;;;15.30;100.00
5595;BME280;1003;48.002;7.788;2023-04-23T06:08:41;98800.97;;;15.82;100.00
5595;BME280;1003;48.002;7.788;2023-04-23T06:11:08;98770.34;;;15.87;100.00
5595;BME280;1003;48.002;7.788;2023-04-23T06:13:36;98756.00;;;15.17;100.00
5595;BME280;1003;48.002;7.788;2023-04-23T06:16:06;98752.41;;;15.24;100.00
5595;BME280;1003;48.002;7.788;2023-04-23T06:18:33;98760.03;;;16.13;100.00
5595;BME280;1003;48.002;7.788;2023-04-23T06:21:00;98708.41;;;16.36;100.00
5595;BME280;1003;48.002;7.788;2023-04-23T06:23:29;98687.41;;;16.33;100.00
5595;BME280;1003;48.002;7.788;2023-04-23T06:25:56;98664.94;;;15.83;100.00
5595;BME280;1003;48.002;7.788;2023-04-23T06:28:23;98675.53;;;16.13;100.00
5595;BME280;1003;48.002;7.788;2023-04-23T06:30:51;98651.63;;;16.18;100.00
5595;BME280;1003;48.002;7.788;2023-04-23T06:33:18;98634.72;;;15.98;100.00
5595;BME280;1003;48.002;7.788;2023-04-23T06:35:45;98632.63;;;15.88;100.00
5595;BME280;1003;48.002;7.788;2023-04-23T06:38:12;98639.81;;;15.98;100.00
5595;BME280;1003;48.002;7.788;2023-04-23T06:40:40;98637.59;;;16.50;100.00
5595;BME280;1003;48.002;7.788;2023-04-23T06:43:07;98613.38;;;16.83;100.00
5595;BME280;1003;48.002;7.788;2023-04-23T06:45:34;98591.94;;;17.26;100.00
5595;BME280;1003;48.002;7.788;2023-04-23T06:48:03;98574.25;;;17.24;100.00
5595;BME280;1003;48.002;7.788;2023-04-23T06:50:30;98544.06;;;17.53;100.00
5595;BME280;1003;48.002;7.788;2023-04-23T06:52:57;98530.31;;;17.92;100.00
5595;BME280;1003;48.002;7.788;2023-04-23T06:55:24;98455.97;;;17.71;100.00
5595;BME280;1003;48.002;7.788;2023-04-23T06:57:51;98454.19;;;17.73;100.00
5595;BME280;1003;48.002;7.788;2023-04-23T07:00:20;98441.63;;;18.03;100.00
5595;BME280;1003;48.002;7.788;2023-04-23T07:02:47;98430.56;;;18.20;100.00
5595;BME280;1003;48.002;7.788;2023-04-23T07:05:16;98386.22;;;18.40;100.00
5595;BME280;1003;48.002;7.788;2023-04-23T07:07:43;98355.63;;;18.41;100.00
5595;BME280;1003;48.002;7.788;2023-04-23T07:10:11;98342.09;;;18.71;100.00
5595;BME280;1003;48.002;7.788;2023-04-23T07:12:38;98348.22;;;18.82;100.00
5595;BME280;1003;48.002;7.788;2023-04-23T07:15:07;98303.44;;;18.64;100.00
5595;BME280;1003;48.002;7.788;2023-04-23T07:17:34;98298.97;;;18.83;100.00
5595;BME280;1003;48.002;7.788;2023-04-23T07:20:02;98290.88;;;18.31;100.00
5595;BME280;1003;48.002;7.788;2023-04-23T07:22:32;98250.13;;;18.17;100.00
5595;BME280;1003;48.002;7.788;2023-04-23T07:25:00;98237.41;;;18.47;100.00
5595;BME280;1003;48.002;7.788;2023-04-23T07:27:27;98233.28;;;18.74;100.00
5595;BME280;1003;48.002;7.788;2023-04-23T07:29:54;98228.97;;;18.60;100.00
5595;BME280;1003;48.002;7.788;2023-04-23T07:32:21;98181.19;;;18.94;100.00
5595;BME280;1003;48.002;7.788;2023-04-23T07:34:53;98131.94;;;19.22;100.00
5595;BME280;1003;48.002;7.788;2023-04-23T07:37:20;98120.53;;;19.28;100.00
5595;BME280;1003;48.002;7.788;2023-04-23T07:39:49;98061.94;;;19.01;100.00
5595;BME280;1003;48.002;7.788;2023-04-23T07:42:16;98076.41;;;19.27;100.00
5595;BME280;1003;48.002;7.788;2023-04-23T07:44:43;97993.94;;;19.68;100.00
5595;BME280;1003;48.002;7.788;2023-04-23T07:47:10;98003.94;;;19.84;100.00
5595;BME280;1003;48.002;7.788;2023-04-23T07:49:37;97999.22;;;19.90;100.00
5595;BME280;1003;48.002;7.788;2023-04-23T07:52:04;97999.66;;;19.84;100.00
5595;BME280;1003;48.002;7.788;2023-04-23T07:54:31;98009.66;;;20.13;100.00
5595;BME280;1003;48.002;7.788;2023-04-23T07:56:59;98024.59;;;20.43;100.00
5595;BME280;1003;48.002;7.788;2023-04-23T07:59:27;98029.28;;;20.36;100.00
5595;BME280;1003;48.002;7.788;2023-04-23T08:01:54;98024.88;;;20.38;100.00
5595;BME280;1003;48.002;7.788;2023-04-23T08:04:22;98038.81;;;20.34;100.00
5595;BME280;1003;48.002;7.788;2023-04-23T08:06:49;98052.53;;;20.44;100.00
5595;BME280;1003;48.002;7.788;2023-04-23T08:09:16;98063.72;;;20.18;100.00
5595;BME280;1003;48.002;7.788;2023-04-23T08:11:43;98074.91;;;19.77;100.00
5595;BME280;1003;48.002;7.788;2023-04-23T08:14:12;98059.59;;;20.28;100.00
5595;BME280;1003;48.002;7.788;2023-04-23T08:16:39;98053.19;;;19.84;100.00
5595;BME280;1003;48.002;7.788;2023-04-23T08:19:06;98052.06;;;20.27;100.00
5595;BME280;1003;48.002;7.788;2023-04-23T08:21:33;98046.97;;;20.27;100.00
5595;BME280;1003;48.002;7.788;2023-04-23T08:24:00;98050.63;;;20.35;100.00
5595;BME280;1003;48.002;7.788;2023-04-23T08:26:28;98058.16;;;20.99;100.00
5595;BME280;1003;48.002;7.788;2023-04-23T08:28:56;98057.75;;;20.43;100.00
5595;BME280;1003;48.002;7.788;2023-04-23T08:31:26;98062.81;;;20.81;100.00
5595;BME280;1003;48.002;7.788;2023-04-23T08:33:54;98083.75;;;21.10;100.00
5595;BME280;1003;48.002;7.788;2023-04-23T08:36:21;98095.16;;;21.17;100.00
5595;BME280;1003;48.002;7.788;2023-04-23T08:38:49;98096.78;;;21.31;100.00
5595;BME280;1003;48.002;7.788;2023-04-23T08:41:18;98087.38;;;20.95;100.00
5595;BME280;1003;48.002;7.788;2023-04-23T08:43:56;98095.34;;;21.27;100.00
5595;BME280;1003;48.002;7.788;2023-04-23T08:46:30;98087.97;;;21.35;100.00
5595;BME280;1003;48.002;7.788;2023-04-23T08:49:02;98101.19;;;21.53;100.00
5595;BME280;1003;48.002;7.788;2023-04-23T08:51:38;98110.09;;;20.87;100.00
5595;BME280;1003;48.002;7.788;2023-04-23T08:54:14;98116.34;;;20.06;100.00
5595;BME280;1003;48.002;7.788;2023-04-23T08:56:41;98100.44;;;20.54;100.00
5595;BME280;1003;48.002;7.788;2023-04-23T08:59:11;98096.78;;;20.45;100.00
5595;BME280;1003;48.002;7.788;2023-04-23T09:01:41;98090.00;;;20.44;100.00
5595;BME280;1003;48.002;7.788;2023-04-23T09:04:09;98087.50;;;21.41;100.00
5595;BME280;1003;48.002;7.788;2023-04-23T09:06:37;98113.41;;;20.38;100.00
5595;BME280;1003;48.002;7.788;2023-04-23T09:09:06;98081.53;;;20.43;100.00
5595;BME280;1003;48.002;7.788;2023-04-23T09:11:36;98074.50;;;20.73;100.00
5595;BME280;1003;48.002;7.788;2023-04-23T09:14:03;98082.69;;;20.52;100.00
5595;BME280;1003;48.002;7.788;2023-04-23T09:16:31;98072.28;;;19.91;100.00
5595;BME280;1003;48.002;7.788;2023-04-23T09:19:00;98041.59;;;21.05;100.00
5595;BME280;1003;48.002;7.788;2023-04-23T09:21:27;98059.03;;;21.35;100.00
5595;BME280;1003;48.002;7.788;2023-04-23T09:23:54;98083.59;;;21.48;100.00
5595;BME280;1003;48.002;7.788;2023-04-23T09:26:22;98080.09;;;21.85;100.00
5595;BME280;1003;48.002;7.788;2023-04-23T09:28:50;98070.25;;;21.08;100.00
5595;BME280;1003;48.002;7.788;2023-04-23T09:31:20;98061.28;;;20.79;100.00
5595;BME280;1003;48.002;7.788;2023-04-23T09:33:52;98076.22;;;20.72;100.00
5595;BME280;1003;48.002;7.788;2023-04-23T09:36:23;98057.03;;;21.14;100.00
5595;BME280;1003;48.002;7.788;2023-04-23T09:38:54;98053.13;;;20.97;100.00
5595;BME280;1003;48.002;7.788;2023-04-23T09:41:23;98058.13;;;20.75;100.00
5595;BME280;1003;48.002;7.788;2023-04-23T09:43:53;98049.06;;;21.43;100.00
5595;BME280;1003;48.002;7.788;2023-04-23T09:46:33;98085.13;;;22.09;100.00
5595;BME280;1003;48.002;7.788;2023-04-23T09:49:01;98078.09;;;22.35;100.00
5595;BME280;1003;48.002;7.788;2023-04-23T09:51:30;98093.56;;;22.33;100.00
5595;BME280;1003;48.002;7.788;2023-04-23T09:54:00;98115.22;;;21.94;100.00
5595;BME280;1003;48.002;7.788;2023-04-23T09:56:29;98112.06;;;22.14;100.00
5595;BME280;1003;48.002;7.788;2023-04-23T09:58:57;98106.78;;;21.58;100.00
5595;BME280;1003;48.002;7.788;2023-04-23T10:01:28;98107.75;;;22.15;100.00
5595;BME280;1003;48.002;7.788;2023-04-23T10:03:55;98110.84;;;21.96;100.00
5595;BME280;1003;48.002;7.788;2023-04-23T10:06:31;98127.53;;;20.56;100.00
5595;BME280;1003;48.002;7.788;2023-04-23T10:08:58;98111.25;;;20.44;100.00
5595;BME280;1003;48.002;7.788;2023-04-23T10:11:27;98093.38;;;20.83;100.00
5595;BME280;1003;48.002;7.788;2023-04-23T10:13:54;98097.66;;;21.06;100.00
5595;BME280;1003;48.002;7.788;2023-04-23T10:16:22;98101.22;;;21.16;100.00
5595;BME280;1003;48.002;7.788;2023-04-23T10:18:51;98116.31;;;21.32;100.00
5595;BME280;1003;48.002;7.788;2023-04-23T10:21:22;98111.47;;;21.04;100.00
5595;BME280;1003;48.002;7.788;2023-04-23T10:23:53;98096.59;;;21.21;100.00
5595;BME280;1003;48.002;7.788;2023-04-23T10:26:23;98121.28;;;20.48;100.00
5595;BME280;1003;48.002;7.788;2023-04-23T10:28:53;98115.38;;;20.96;100.00
5595;BME280;1003;48.002;7.788;2023-04-23T10:31:21;98118.75;;;21.34;100.00
5595;BME280;1003;48.002;7.788;2023-04-23T10:33:49;98121.56;;;21.66;100.00
5595;BME280;1003;48.002;7.788;2023-04-23T10:36:16;98134.00;;;21.70;100.00
5595;BME280;1003;48.002;7.788;2023-04-23T10:38:45;98134.25;;;21.79;100.00
5595;BME280;1003;48.002;7.788;2023-04-23T10:41:17;98147.25;;;21.40;100.00
5595;BME280;1003;48.002;7.788;2023-04-23T10:43:49;98151.09;;;20.73;100.00
5595;BME280;1003;48.002;7.788;2023-04-23T10:46:27;98135.50;;;21.25;100.00
5595;BME280;1003;48.002;7.788;2023-04-23T10:49:10;98144.25;;;21.46;100.00
5595;BME280;1003;48.002;7.788;2023-04-23T10:51:40;98156.44;;;21.43;100.00
5595;BME280;1003;48.002;7.788;2023-04-23T10:54:08;98157.59;;;21.39;100.00
5595;BME280;1003;48.002;7.788;2023-04-23T10:56:42;98151.50;;;21.53;100.00
5595;BME280;1003;48.002;7.788;2023-04-23T10:59:18;98155.28;;;21.47;100.00
5595;BME280;1003;48.002;7.788;2023-04-23T11:01:47;98154.25;;;21.13;100.00
5595;BME280;1003;48.002;7.788;2023-04-23T11:04:20;98156.06;;;21.23;100.00
5595;BME280;1003;48.002;7.788;2023-04-23T11:06:53;98149.41;;;21.34;100.00
5595;BME280;1003;48.002;7.788;2023-04-23T11:09:36;98157.63;;;21.50;100.00
5595;BME280;1003;48.002;7.788;2023-04-23T11:12:09;98149.97;;;21.74;100.00
5595;BME280;1003;48.002;7.788;2023-04-23T11:14:45;98149.69;;;21.66;100.00
5595;BME280;1003;48.002;7.788;2023-04-23T11:17:13;98147.66;;;21.82;100.00
5595;BME280;1003;48.002;7.788;2023-04-23T11:19:43;98144.63;;;21.88;100.00
5595;BME280;1003;48.002;7.788;2023-04-23T11:22:34;98144.47;;;21.43;100.00
5595;BME280;1003;48.002;7.788;2023-04-23T11:25:02;98135.31;;;21.76;100.00
5595;BME280;1003;48.002;7.788;2023-04-23T11:27:31;98143.19;;;21.73;100.00
5595;BME280;1003;48.002;7.788;2023-04-23T11:29:58;98142.91;;;21.54;100.00
5595;BME280;1003;48.002;7.788;2023-04-23T11:32:27;98132.16;;;21.72;100.00
5595;BME280;1003;48.002;7.788;2023-04-23T11:34:55;98114.72;;;21.78;100.00
5595;BME280;1003;48.002;7.788;2023-04-23T11:37:24;98110.94;;;21.94;100.00
5595;BME280;1003;48.002;7.788;2023-04-23T11:39:51;98107.53;;;21.83;100.00
5595;BME280;1003;48.002;7.788;2023-04-23T11:42:18;98101.88;;;21.90;100.00
5595;BME280;1003;48.002;7.788;2023-04-23T11:44:48;98093.50;;;21.99;100.00
5595;BME280;1003;48.002;7.788;2023-04-23T11:47:15;98089.50;;;22.31;100.00
5595;BME280;1003;48.002;7.788;2023-04-23T11:49:44;98091.00;;;22.22;100.00
5595;BME280;1003;48.002;7.788;2023-04-23T11:52:11;98082.63;;;22.53;100.00
5595;BME280;1003;48.002;7.788;2023-04-23T11:54:40;98074.81;;;22.66;100.00
5595;BME280;1003;48.002;7.788;2023-04-23T11:57:08;98060.19;;;22.23;100.00
5595;BME280;1003;48.002;7.788;2023-04-23T11:59:35;98057.44;;;22.70;100.00
5595;BME280;1003;48.002;7.788;2023-04-23T12:02:04;98043.75;;;23.03;100.00
5595;BME280;1003;48.002;7.788;2023-04-23T12:04:32;98035.16;;;22.82;100.00
5595;BME280;1003;48.002;7.788;2023-04-23T12:06:59;98025.75;;;22.82;100.00
5595;BME280;1003;48.002;7.788;2023-04-23T12:09:28;98022.00;;;22.86;100.00
5595;BME280;1003;48.002;7.788;2023-04-23T12:11:56;98016.78;;;22.99;100.00
5595;BME280;1003;48.002;7.788;2023-04-23T12:14:27;97999.28;;;23.46;100.00
5595;BME280;1003;48.002;7.788;2023-04-23T12:16:55;97990.16;;;23.95;100.00
5595;BME280;1003;48.002;7.788;2023-04-23T12:19:29;97981.25;;;24.08;98.13
5595;BME280;1003;48.002;7.788;2023-04-23T12:21:58;97960.72;;;24.39;95.93
5595;BME280;1003;48.002;7.788;2023-04-23T12:24:28;97957.00;;;24.22;91.91
5595;BME280;1003;48.002;7.788;2023-04-23T12:26:58;97952.13;;;23.58;88.38
5595;BME280;1003;48.002;7.788;2023-04-23T12:29:29;97945.59;;;24.05;93.59
5595;BME280;1003;48.002;7.788;2023-04-23T12:31:59;97930.19;;;24.15;92.71
5595;BME280;1003;48.002;7.788;2023-04-23T12:34:27;97934.31;;;24.27;92.43
5595;BME280;1003;48.002;7.788;2023-04-23T12:36:55;97925.09;;;24.25;90.24
5595;BME280;1003;48.002;7.788;2023-04-23T12:39:26;97917.19;;;23.97;89.60
5595;BME280;1003;48.002;7.788;2023-04-23T12:41:57;97914.28;;;24.31;90.94
5595;BME280;1003;48.002;7.788;2023-04-23T12:44:26;97902.78;;;24.25;92.38
5595;BME280;1003;48.002;7.788;2023-04-23T12:46:58;97893.94;;;23.99;93.04
5595;BME280;1003;48.002;7.788;2023-04-23T12:49:30;97889.59;;;24.59;91.21
5595;BME280;1003;48.002;7.788;2023-04-23T12:51:59;97887.72;;;23.92;94.66
5595;BME280;1003;48.002;7.788;2023-04-23T12:54:29;97893.31;;;24.06;95.41
5595;BME280;1003;48.002;7.788;2023-04-23T12:56:56;97887.19;;;24.38;92.50
5595;BME280;1003;48.002;7.788;2023-04-23T12:59:24;97869.72;;;24.42;90.31
5595;BME280;1003;48.002;7.788;2023-04-23T13:01:52;97862.50;;;24.06;85.23
5595;BME280;1003;48.002;7.788;2023-04-23T13:04:19;97852.78;;;24.20;90.69
5595;BME280;1003;48.002;7.788;2023-04-23T13:06:50;97842.28;;;24.52;90.79
5595;BME280;1003;48.002;7.788;2023-04-23T13:09:20;97834.41;;;24.92;92.17
5595;BME280;1003;48.002;7.788;2023-04-23T13:11:50;97833.84;;;24.88;81.79
5595;BME280;1003;48.002;7.788;2023-04-23T13:14:17;97822.22;;;24.75;84.15
5595;BME280;1003;48.002;7.788;2023-04-23T13:16:44;97818.59;;;24.68;85.06
5595;BME280;1003;48.002;7.788;2023-04-23T13:19:11;97809.19;;;25.15;79.07